Tabernash, Colorado
Current Conditions -  °F | °C
As of 6:50 AM on Friday 24 Oct 2014 (Local Time) from K0CO Reporting Station
Clear Clear  
Wind Chill: 22°   Ceiling: Unl
Heat Index: 34°   Visibility: 10mi
Dew Point: 32°   Wind: 21mph
Humidity: 93%   Direction: 290°WNW
Pressure: 30.57"   Gusts: 30mph
Location:  39.99°N, 105.84°W
Report Text: K0CO 241250Z AUTO 29018G26KT 10SM CLR 01/00 A3057 RMK AO2
Loading
Personal Weather Stations






























Interactive Weather Map
Tropical Storm Tracking
New forecast layout! Learn more

10-Day Weather Forecast

Advertisements
Track Severe Weather on mobile